Southland, Texas
Current Conditions -  °F | °C
As of 10:53 PM on Friday 19 Dec 2014 (Local Time) from KLBB Reporting Station
Overcast Overcast  
Wind Chill: 32°   Ceiling: 1200
Heat Index: 38°   Visibility: 7mi
Dew Point: 36°   Wind: 8mph
Humidity: 93%   Direction: 150°SSE
Pressure: 30.15"   Gusts: NA
Location:  33.4457°N, 101.67°W
Report Text: KLBB 200453Z 15007KT 7SM OVC012 03/02 A3015 RMK AO2 SLP208 T00330022
Loading
Personal Weather Stations






























Interactive Weather Map New forecast layout! Learn more

10-Day Weather Forecast

Advertisements
Track Severe Weather on mobile